sensor_id;sensor_type;location;lat;lon;timestamp;temperature;humidity
16532;DHT22;66872;63.142;14.482;2024-03-17T00:02:10;15.00;26.70
16532;DHT22;66872;63.142;14.482;2024-03-17T00:04:36;15.00;26.70
16532;DHT22;66872;63.142;14.482;2024-03-17T00:07:02;15.00;26.70
16532;DHT22;66872;63.142;14.482;2024-03-17T00:09:27;15.10;26.80
16532;DHT22;66872;63.142;14.482;2024-03-17T00:11:54;15.10;26.80
16532;DHT22;66872;63.142;14.482;2024-03-17T00:14:21;15.00;26.70
16532;DHT22;66872;63.142;14.482;2024-03-17T00:16:47;15.10;26.80
16532;DHT22;66872;63.142;14.482;2024-03-17T00:19:14;15.10;26.70
16532;DHT22;66872;63.142;14.482;2024-03-17T00:21:39;15.10;26.70
16532;DHT22;66872;63.142;14.482;2024-03-17T00:24:05;15.00;26.70
16532;DHT22;66872;63.142;14.482;2024-03-17T00:26:31;15.00;26.60
16532;DHT22;66872;63.142;14.482;2024-03-17T00:28:57;15.10;26.70
16532;DHT22;66872;63.142;14.482;2024-03-17T00:31:23;15.00;26.70
16532;DHT22;66872;63.142;14.482;2024-03-17T00:33:52;15.00;26.70
16532;DHT22;66872;63.142;14.482;2024-03-17T00:36:17;15.00;26.80
16532;DHT22;66872;63.142;14.482;2024-03-17T00:38:43;15.00;26.70
16532;DHT22;66872;63.142;14.482;2024-03-17T00:41:08;15.00;26.70
16532;DHT22;66872;63.142;14.482;2024-03-17T00:43:34;15.00;26.70
16532;DHT22;66872;63.142;14.482;2024-03-17T00:46:00;15.00;26.70
16532;DHT22;66872;63.142;14.482;2024-03-17T00:48:26;15.10;26.80
16532;DHT22;66872;63.142;14.482;2024-03-17T00:50:55;15.10;26.70
16532;DHT22;66872;63.142;14.482;2024-03-17T00:53:21;15.10;26.70
16532;DHT22;66872;63.142;14.482;2024-03-17T00:55:54;15.10;26.70
16532;DHT22;66872;63.142;14.482;2024-03-17T00:58:22;15.10;26.70
16532;DHT22;66872;63.142;14.482;2024-03-17T01:00:48;15.10;26.80
16532;DHT22;66872;63.142;14.482;2024-03-17T01:03:15;15.10;26.70
16532;DHT22;66872;63.142;14.482;2024-03-17T01:05:41;15.10;26.80
16532;DHT22;66872;63.142;14.482;2024-03-17T01:08:09;15.10;26.80
16532;DHT22;66872;63.142;14.482;2024-03-17T01:10:38;15.10;26.70
16532;DHT22;66872;63.142;14.482;2024-03-17T01:13:08;15.10;26.70
16532;DHT22;66872;63.142;14.482;2024-03-17T01:15:35;15.10;26.70
16532;DHT22;66872;63.142;14.482;2024-03-17T01:18:02;15.10;26.70
16532;DHT22;66872;63.142;14.482;2024-03-17T01:20:34;15.00;26.70
16532;DHT22;66872;63.142;14.482;2024-03-17T01:22:59;15.10;26.80
16532;DHT22;66872;63.142;14.482;2024-03-17T01:25:25;15.00;26.70
16532;DHT22;66872;63.142;14.482;2024-03-17T01:27:52;15.00;26.70
16532;DHT22;66872;63.142;14.482;2024-03-17T01:30:18;15.00;26.80
16532;DHT22;66872;63.142;14.482;2024-03-17T01:32:47;15.00;26.80
16532;DHT22;66872;63.142;14.482;2024-03-17T01:35:14;15.00;26.80
16532;DHT22;66872;63.142;14.482;2024-03-17T01:37:40;15.00;26.80
16532;DHT22;66872;63.142;14.482;2024-03-17T01:40:06;15.00;26.80
16532;DHT22;66872;63.142;14.482;2024-03-17T01:42:39;15.00;26.80
16532;DHT22;66872;63.142;14.482;2024-03-17T01:45:27;15.00;26.80
16532;DHT22;66872;63.142;14.482;2024-03-17T01:47:54;15.00;26.80
16532;DHT22;66872;63.142;14.482;2024-03-17T01:50:20;15.00;26.80
16532;DHT22;66872;63.142;14.482;2024-03-17T01:52:52;15.00;26.90
16532;DHT22;66872;63.142;14.482;2024-03-17T01:55:18;15.00;26.80
16532;DHT22;66872;63.142;14.482;2024-03-17T01:57:44;15.00;26.90
16532;DHT22;66872;63.142;14.482;2024-03-17T02:00:14;15.00;26.80
16532;DHT22;66872;63.142;14.482;2024-03-17T02:02:42;15.00;26.80
16532;DHT22;66872;63.142;14.482;2024-03-17T02:05:08;15.00;26.80
16532;DHT22;66872;63.142;14.482;2024-03-17T02:07:34;15.00;26.80
16532;DHT22;66872;63.142;14.482;2024-03-17T02:09:59;14.90;26.80
16532;DHT22;66872;63.142;14.482;2024-03-17T02:12:25;14.90;26.80
16532;DHT22;66872;63.142;14.482;2024-03-17T02:14:51;14.90;26.80
16532;DHT22;66872;63.142;14.482;2024-03-17T02:17:17;14.90;26.90
16532;DHT22;66872;63.142;14.482;2024-03-17T02:19:43;14.90;26.90
16532;DHT22;66872;63.142;14.482;2024-03-17T02:22:15;14.90;26.90
16532;DHT22;66872;63.142;14.482;2024-03-17T02:24:42;14.90;26.90
16532;DHT22;66872;63.142;14.482;2024-03-17T02:27:08;14.90;26.90
16532;DHT22;66872;63.142;14.482;2024-03-17T02:29:34;14.90;26.90
16532;DHT22;66872;63.142;14.482;2024-03-17T02:32:02;14.90;26.90
16532;DHT22;66872;63.142;14.482;2024-03-17T02:34:36;14.90;27.00
16532;DHT22;66872;63.142;14.482;2024-03-17T02:37:03;14.90;26.90
16532;DHT22;66872;63.142;14.482;2024-03-17T02:39:30;14.90;27.00
16532;DHT22;66872;63.142;14.482;2024-03-17T02:42:07;14.80;26.90
16532;DHT22;66872;63.142;14.482;2024-03-17T02:44:35;14.90;26.90
16532;DHT22;66872;63.142;14.482;2024-03-17T02:47:02;14.90;26.90
16532;DHT22;66872;63.142;14.482;2024-03-17T02:49:30;14.90;26.90
16532;DHT22;66872;63.142;14.482;2024-03-17T02:52:07;14.90;26.90
16532;DHT22;66872;63.142;14.482;2024-03-17T02:54:37;14.90;26.90
16532;DHT22;66872;63.142;14.482;2024-03-17T02:57:04;14.90;27.00
16532;DHT22;66872;63.142;14.482;2024-03-17T02:59:30;14.90;26.90
16532;DHT22;66872;63.142;14.482;2024-03-17T03:01:56;14.90;26.90
16532;DHT22;66872;63.142;14.482;2024-03-17T03:04:22;14.90;26.90
16532;DHT22;66872;63.142;14.482;2024-03-17T03:06:48;14.90;26.80
16532;DHT22;66872;63.142;14.482;2024-03-17T03:09:14;14.90;26.80
16532;DHT22;66872;63.142;14.482;2024-03-17T03:11:45;14.90;26.80
16532;DHT22;66872;63.142;14.482;2024-03-17T03:14:12;14.90;26.80
16532;DHT22;66872;63.142;14.482;2024-03-17T03:16:38;14.90;26.90
16532;DHT22;66872;63.142;14.482;2024-03-17T03:19:04;14.90;26.90
16532;DHT22;66872;63.142;14.482;2024-03-17T03:21:31;14.90;26.90
16532;DHT22;66872;63.142;14.482;2024-03-17T03:23:56;14.80;26.90
16532;DHT22;66872;63.142;14.482;2024-03-17T03:26:22;14.80;26.90
16532;DHT22;66872;63.142;14.482;2024-03-17T03:28:49;14.80;26.90
16532;DHT22;66872;63.142;14.482;2024-03-17T03:31:15;14.80;26.90
16532;DHT22;66872;63.142;14.482;2024-03-17T03:33:42;14.80;27.40
16532;DHT22;66872;63.142;14.482;2024-03-17T03:36:13;14.80;27.00
16532;DHT22;66872;63.142;14.482;2024-03-17T03:38:38;14.80;26.90
16532;DHT22;66872;63.142;14.482;2024-03-17T03:41:13;14.80;26.90
16532;DHT22;66872;63.142;14.482;2024-03-17T03:43:39;14.80;26.90
16532;DHT22;66872;63.142;14.482;2024-03-17T03:46:06;14.80;26.90
16532;DHT22;66872;63.142;14.482;2024-03-17T03:48:32;14.80;26.90
16532;DHT22;66872;63.142;14.482;2024-03-17T03:51:09;14.80;27.00
16532;DHT22;66872;63.142;14.482;2024-03-17T03:53:37;14.80;27.00
16532;DHT22;66872;63.142;14.482;2024-03-17T03:56:05;14.80;26.90
16532;DHT22;66872;63.142;14.482;2024-03-17T03:58:38;14.80;26.90
16532;DHT22;66872;63.142;14.482;2024-03-17T04:01:05;14.80;27.00
16532;DHT22;66872;63.142;14.482;2024-03-17T04:03:32;14.80;27.00
16532;DHT22;66872;63.142;14.482;2024-03-17T04:06:06;14.80;27.00
16532;DHT22;66872;63.142;14.482;2024-03-17T04:08:35;14.80;27.00
16532;DHT22;66872;63.142;14.482;2024-03-17T04:11:02;14.80;27.00
16532;DHT22;66872;63.142;14.482;2024-03-17T04:13:28;14.80;27.00
16532;DHT22;66872;63.142;14.482;2024-03-17T04:15:55;14.80;27.00
16532;DHT22;66872;63.142;14.482;2024-03-17T04:18:23;14.70;26.90
16532;DHT22;66872;63.142;14.482;2024-03-17T04:20:51;14.70;27.00
16532;DHT22;66872;63.142;14.482;2024-03-17T04:23:21;14.70;27.00
16532;DHT22;66872;63.142;14.482;2024-03-17T04:25:48;14.70;26.90
16532;DHT22;66872;63.142;14.482;2024-03-17T04:28:15;14.70;27.00
16532;DHT22;66872;63.142;14.482;2024-03-17T04:30:41;14.70;27.00
16532;DHT22;66872;63.142;14.482;2024-03-17T04:33:08;14.70;27.00
16532;DHT22;66872;63.142;14.482;2024-03-17T04:35:38;14.70;27.00
16532;DHT22;66872;63.142;14.482;2024-03-17T04:38:04;14.70;27.00
16532;DHT22;66872;63.142;14.482;2024-03-17T04:40:31;14.80;27.00
16532;DHT22;66872;63.142;14.482;2024-03-17T04:42:57;14.80;27.00
16532;DHT22;66872;63.142;14.482;2024-03-17T04:45:22;14.70;26.90
16532;DHT22;66872;63.142;14.482;2024-03-17T04:47:48;14.70;26.90
16532;DHT22;66872;63.142;14.482;2024-03-17T04:50:14;14.70;27.00
16532;DHT22;66872;63.142;14.482;2024-03-17T04:52:40;14.70;27.00
16532;DHT22;66872;63.142;14.482;2024-03-17T04:55:06;14.70;27.00
16532;DHT22;66872;63.142;14.482;2024-03-17T04:57:31;14.70;27.00
16532;DHT22;66872;63.142;14.482;2024-03-17T04:59:57;14.70;26.90
16532;DHT22;66872;63.142;14.482;2024-03-17T05:02:23;14.70;26.90
16532;DHT22;66872;63.142;14.482;2024-03-17T05:04:50;14.70;26.90
16532;DHT22;66872;63.142;14.482;2024-03-17T05:07:15;14.70;26.90
16532;DHT22;66872;63.142;14.482;2024-03-17T05:09:41;14.70;26.90
16532;DHT22;66872;63.142;14.482;2024-03-17T05:12:09;14.70;27.00
16532;DHT22;66872;63.142;14.482;2024-03-17T05:14:35;14.70;27.00
16532;DHT22;66872;63.142;14.482;2024-03-17T05:17:01;14.70;27.00
16532;DHT22;66872;63.142;14.482;2024-03-17T05:19:27;14.70;27.00
16532;DHT22;66872;63.142;14.482;2024-03-17T05:21:52;14.70;27.00
16532;DHT22;66872;63.142;14.482;2024-03-17T05:24:18;14.70;27.00
16532;DHT22;66872;63.142;14.482;2024-03-17T05:26:45;14.70;27.00
16532;DHT22;66872;63.142;14.482;2024-03-17T05:29:11;14.70;27.00
16532;DHT22;66872;63.142;14.482;2024-03-17T05:31:37;14.70;26.90
16532;DHT22;66872;63.142;14.482;2024-03-17T05:34:07;14.70;27.00
16532;DHT22;66872;63.142;14.482;2024-03-17T05:36:33;14.70;26.90
16532;DHT22;66872;63.142;14.482;2024-03-17T05:38:59;14.70;27.00
16532;DHT22;66872;63.142;14.482;2024-03-17T05:41:25;14.70;26.90
16532;DHT22;66872;63.142;14.482;2024-03-17T05:43:51;14.70;27.00
16532;DHT22;66872;63.142;14.482;2024-03-17T05:46:17;14.70;27.00
16532;DHT22;66872;63.142;14.482;2024-03-17T05:48:43;14.70;27.00
16532;DHT22;66872;63.142;14.482;2024-03-17T05:51:11;14.70;27.00
16532;DHT22;66872;63.142;14.482;2024-03-17T05:53:38;14.70;27.00
16532;DHT22;66872;63.142;14.482;2024-03-17T05:56:06;14.70;27.10
16532;DHT22;66872;63.142;14.482;2024-03-17T05:58:37;14.70;27.10
16532;DHT22;66872;63.142;14.482;2024-03-17T06:01:03;14.70;27.00
16532;DHT22;66872;63.142;14.482;2024-03-17T06:03:30;14.70;27.10
16532;DHT22;66872;63.142;14.482;2024-03-17T06:05:58;14.60;27.00
16532;DHT22;66872;63.142;14.482;2024-03-17T06:08:24;14.60;27.00
16532;DHT22;66872;63.142;14.482;2024-03-17T06:10:50;14.70;27.10
16532;DHT22;66872;63.142;14.482;2024-03-17T06:13:16;14.60;27.00
16532;DHT22;66872;63.142;14.482;2024-03-17T06:15:45;14.60;27.00
16532;DHT22;66872;63.142;14.482;2024-03-17T06:18:13;14.60;27.00
16532;DHT22;66872;63.142;14.482;2024-03-17T06:20:40;14.60;27.00
16532;DHT22;66872;63.142;14.482;2024-03-17T06:23:10;14.60;27.00
16532;DHT22;66872;63.142;14.482;2024-03-17T06:25:46;14.60;27.00
16532;DHT22;66872;63.142;14.482;2024-03-17T06:28:14;14.60;27.50
16532;DHT22;66872;63.142;14.482;2024-03-17T06:30:44;14.60;27.00
16532;DHT22;66872;63.142;14.482;2024-03-17T06:33:15;14.60;27.10
16532;DHT22;66872;63.142;14.482;2024-03-17T06:35:41;14.60;27.00
16532;DHT22;66872;63.142;14.482;2024-03-17T06:38:07;14.60;27.00
16532;DHT22;66872;63.142;14.482;2024-03-17T06:40:36;14.60;27.00
16532;DHT22;66872;63.142;14.482;2024-03-17T06:43:01;14.60;27.00
16532;DHT22;66872;63.142;14.482;2024-03-17T06:45:27;14.60;27.00
16532;DHT22;66872;63.142;14.482;2024-03-17T06:47:53;14.60;27.10
16532;DHT22;66872;63.142;14.482;2024-03-17T06:50:18;14.60;27.00
16532;DHT22;66872;63.142;14.482;2024-03-17T06:52:44;14.60;27.00
16532;DHT22;66872;63.142;14.482;2024-03-17T06:55:10;14.60;27.10
16532;DHT22;66872;63.142;14.482;2024-03-17T06:57:36;14.60;27.10
16532;DHT22;66872;63.142;14.482;2024-03-17T07:00:03;14.60;27.10
16532;DHT22;66872;63.142;14.482;2024-03-17T07:02:32;14.60;27.00
16532;DHT22;66872;63.142;14.482;2024-03-17T07:04:58;14.60;27.00
16532;DHT22;66872;63.142;14.482;2024-03-17T07:07:26;14.60;27.10
16532;DHT22;66872;63.142;14.482;2024-03-17T07:09:52;14.60;27.10
16532;DHT22;66872;63.142;14.482;2024-03-17T07:12:17;14.60;27.10
16532;DHT22;66872;63.142;14.482;2024-03-17T07:14:44;14.60;27.10
16532;DHT22;66872;63.142;14.482;2024-03-17T07:17:10;14.60;27.00
16532;DHT22;66872;63.142;14.482;2024-03-17T07:19:35;14.60;27.10
16532;DHT22;66872;63.142;14.482;2024-03-17T07:22:02;14.60;27.10
16532;DHT22;66872;63.142;14.482;2024-03-17T07:24:29;14.60;27.10
16532;DHT22;66872;63.142;14.482;2024-03-17T07:26:55;14.60;27.10
16532;DHT22;66872;63.142;14.482;2024-03-17T07:29:21;14.60;27.10
16532;DHT22;66872;63.142;14.482;2024-03-17T07:31:46;14.60;27.10
16532;DHT22;66872;63.142;14.482;2024-03-17T07:34:12;14.60;27.10
16532;DHT22;66872;63.142;14.482;2024-03-17T07:36:38;14.60;27.10
16532;DHT22;66872;63.142;14.482;2024-03-17T07:39:04;14.60;27.10
16532;DHT22;66872;63.142;14.482;2024-03-17T07:41:32;14.60;27.00
16532;DHT22;66872;63.142;14.482;2024-03-17T07:43:58;14.60;27.00
16532;DHT22;66872;63.142;14.482;2024-03-17T07:46:23;14.60;27.00
16532;DHT22;66872;63.142;14.482;2024-03-17T07:48:49;14.70;27.10
16532;DHT22;66872;63.142;14.482;2024-03-17T07:51:16;14.70;27.10
16532;DHT22;66872;63.142;14.482;2024-03-17T07:53:46;14.70;27.10
16532;DHT22;66872;63.142;14.482;2024-03-17T07:56:14;14.70;27.10
16532;DHT22;66872;63.142;14.482;2024-03-17T07:58:40;14.70;27.10
16532;DHT22;66872;63.142;14.482;2024-03-17T08:01:08;14.70;27.00
16532;DHT22;66872;63.142;14.482;2024-03-17T08:03:37;14.70;27.00
16532;DHT22;66872;63.142;14.482;2024-03-17T08:06:05;14.70;27.00
16532;DHT22;66872;63.142;14.482;2024-03-17T08:08:31;14.70;27.00
16532;DHT22;66872;63.142;14.482;2024-03-17T08:10:57;14.70;26.90
16532;DHT22;66872;63.142;14.482;2024-03-17T08:13:23;14.70;26.90
16532;DHT22;66872;63.142;14.482;2024-03-17T08:15:57;14.70;27.00
16532;DHT22;66872;63.142;14.482;2024-03-17T08:18:23;14.70;27.00
16532;DHT22;66872;63.142;14.482;2024-03-17T08:20:49;14.80;27.00
16532;DHT22;66872;63.142;14.482;2024-03-17T08:23:14;14.80;27.00
16532;DHT22;66872;63.142;14.482;2024-03-17T08:25:40;14.80;27.00
16532;DHT22;66872;63.142;14.482;2024-03-17T08:28:06;14.70;26.90
16532;DHT22;66872;63.142;14.482;2024-03-17T08:30:34;14.80;27.00
16532;DHT22;66872;63.142;14.482;2024-03-17T08:33:01;14.80;26.90
16532;DHT22;66872;63.142;14.482;2024-03-17T08:35:26;14.90;26.90
16532;DHT22;66872;63.142;14.482;2024-03-17T08:37:52;14.90;26.80
16532;DHT22;66872;63.142;14.482;2024-03-17T08:40:20;14.90;26.80
16532;DHT22;66872;63.142;14.482;2024-03-17T08:42:46;15.00;26.80
16532;DHT22;66872;63.142;14.482;2024-03-17T08:45:12;15.00;26.80
16532;DHT22;66872;63.142;14.482;2024-03-17T08:47:38;15.10;26.80
16532;DHT22;66872;63.142;14.482;2024-03-17T08:50:04;15.10;26.70
16532;DHT22;66872;63.142;14.482;2024-03-17T08:52:30;15.00;26.70
16532;DHT22;66872;63.142;14.482;2024-03-17T08:54:59;15.00;26.70
16532;DHT22;66872;63.142;14.482;2024-03-17T08:57:25;15.00;26.70
16532;DHT22;66872;63.142;14.482;2024-03-17T08:59:51;15.00;26.70
16532;DHT22;66872;63.142;14.482;2024-03-17T09:02:19;15.00;26.70
16532;DHT22;66872;63.142;14.482;2024-03-17T09:04:47;15.10;26.80
16532;DHT22;66872;63.142;14.482;2024-03-17T09:07:12;15.10;26.70
16532;DHT22;66872;63.142;14.482;2024-03-17T09:09:41;15.10;26.70
16532;DHT22;66872;63.142;14.482;2024-03-17T09:12:07;15.10;26.70
16532;DHT22;66872;63.142;14.482;2024-03-17T09:14:32;15.10;26.70
16532;DHT22;66872;63.142;14.482;2024-03-17T09:16:59;15.10;26.70
16532;DHT22;66872;63.142;14.482;2024-03-17T09:19:25;15.10;27.20
16532;DHT22;66872;63.142;14.482;2024-03-17T09:21:50;15.10;26.70
16532;DHT22;66872;63.142;14.482;2024-03-17T09:24:16;15.10;26.70
16532;DHT22;66872;63.142;14.482;2024-03-17T09:26:42;15.10;26.70
16532;DHT22;66872;63.142;14.482;2024-03-17T09:29:07;15.10;26.70
16532;DHT22;66872;63.142;14.482;2024-03-17T09:31:33;15.10;26.70
16532;DHT22;66872;63.142;14.482;2024-03-17T09:34:01;15.10;26.70
16532;DHT22;66872;63.142;14.482;2024-03-17T09:36:27;15.10;26.70
16532;DHT22;66872;63.142;14.482;2024-03-17T09:38:53;15.10;26.70
16532;DHT22;66872;63.142;14.482;2024-03-17T09:41:21;15.10;26.70
16532;DHT22;66872;63.142;14.482;2024-03-17T09:43:48;15.10;26.70
16532;DHT22;66872;63.142;14.482;2024-03-17T09:46:15;15.10;26.70
16532;DHT22;66872;63.142;14.482;2024-03-17T09:48:41;15.10;26.70
16532;DHT22;66872;63.142;14.482;2024-03-17T09:51:18;15.10;26.70
16532;DHT22;66872;63.142;14.482;2024-03-17T09:53:44;15.10;26.70
16532;DHT22;66872;63.142;14.482;2024-03-17T09:56:12;15.10;26.70
16532;DHT22;66872;63.142;14.482;2024-03-17T09:58:39;15.20;26.70
16532;DHT22;66872;63.142;14.482;2024-03-17T10:01:05;15.20;26.70
16532;DHT22;66872;63.142;14.482;2024-03-17T10:03:53;15.20;26.70
16532;DHT22;66872;63.142;14.482;2024-03-17T10:06:25;15.20;26.70
16532;DHT22;66872;63.142;14.482;2024-03-17T10:08:59;15.20;26.70
16532;DHT22;66872;63.142;14.482;2024-03-17T10:11:33;15.20;26.70
16532;DHT22;66872;63.142;14.482;2024-03-17T10:14:05;15.20;26.70
16532;DHT22;66872;63.142;14.482;2024-03-17T10:16:32;15.30;26.80
16532;DHT22;66872;63.142;14.482;2024-03-17T10:19:08;15.30;26.80
16532;DHT22;66872;63.142;14.482;2024-03-17T10:21:36;15.30;26.80
16532;DHT22;66872;63.142;14.482;2024-03-17T10:24:10;15.30;26.70
16532;DHT22;66872;63.142;14.482;2024-03-17T10:26:49;15.30;26.70
16532;DHT22;66872;63.142;14.482;2024-03-17T10:31:52;15.30;26.70
16532;DHT22;66872;63.142;14.482;2024-03-17T10:34:18;15.30;26.70
16532;DHT22;66872;63.142;14.482;2024-03-17T10:36:47;15.30;26.70
16532;DHT22;66872;63.142;14.482;2024-03-17T10:39:26;15.30;26.70
16532;DHT22;66872;63.142;14.482;2024-03-17T10:42:02;15.30;26.70
16532;DHT22;66872;63.142;14.482;2024-03-17T10:44:29;15.30;26.60
16532;DHT22;66872;63.142;14.482;2024-03-17T10:46:56;15.30;26.60
16532;DHT22;66872;63.142;14.482;2024-03-17T10:49:34;15.30;26.60
16532;DHT22;66872;63.142;14.482;2024-03-17T10:52:02;15.30;27.10
16532;DHT22;66872;63.142;14.482;2024-03-17T10:54:30;15.30;26.60
16532;DHT22;66872;63.142;14.482;2024-03-17T10:57:44;15.30;26.60
16532;DHT22;66872;63.142;14.482;2024-03-17T10:59:47;15.30;26.60
16532;DHT22;66872;63.142;14.482;2024-03-17T11:02:22;15.30;26.70
16532;DHT22;66872;63.142;14.482;2024-03-17T11:04:56;15.20;26.60
16532;DHT22;66872;63.142;14.482;2024-03-17T11:07:23;15.30;26.70
16532;DHT22;66872;63.142;14.482;2024-03-17T11:09:51;15.20;26.60
16532;DHT22;66872;63.142;14.482;2024-03-17T11:17:50;15.30;26.60
16532;DHT22;66872;63.142;14.482;2024-03-17T11:20:26;15.30;26.60
16532;DHT22;66872;63.142;14.482;2024-03-17T11:22:55;15.30;26.60
16532;DHT22;66872;63.142;14.482;2024-03-17T11:27:58;15.30;26.40
16532;DHT22;66872;63.142;14.482;2024-03-17T11:30:45;15.30;26.50
16532;DHT22;66872;63.142;14.482;2024-03-17T11:39:05;15.30;26.30
16532;DHT22;66872;63.142;14.482;2024-03-17T11:41:51;15.30;26.30
16532;DHT22;66872;63.142;14.482;2024-03-17T11:47:02;15.30;26.30
16532;DHT22;66872;63.142;14.482;2024-03-17T11:49:39;15.40;26.40
16532;DHT22;66872;63.142;14.482;2024-03-17T11:52:10;15.40;26.40
16532;DHT22;66872;63.142;14.482;2024-03-17T11:54:40;15.30;26.30
16532;DHT22;66872;63.142;14.482;2024-03-17T11:57:14;15.30;26.30
16532;DHT22;66872;63.142;14.482;2024-03-17T11:59:40;15.30;26.30
16532;DHT22;66872;63.142;14.482;2024-03-17T12:02:26;15.30;26.40
16532;DHT22;66872;63.142;14.482;2024-03-17T12:05:02;15.30;26.40
16532;DHT22;66872;63.142;14.482;2024-03-17T12:07:28;15.30;26.40
16532;DHT22;66872;63.142;14.482;2024-03-17T12:09:55;15.40;26.40
16532;DHT22;66872;63.142;14.482;2024-03-17T12:12:24;15.30;26.20
16532;DHT22;66872;63.142;14.482;2024-03-17T12:14:51;15.30;26.10
16532;DHT22;66872;63.142;14.482;2024-03-17T12:17:24;15.30;25.90
16532;DHT22;66872;63.142;14.482;2024-03-17T12:19:51;15.30;26.30
16532;DHT22;66872;63.142;14.482;2024-03-17T12:22:19;15.30;26.30
16532;DHT22;66872;63.142;14.482;2024-03-17T12:24:51;15.40;26.20
16532;DHT22;66872;63.142;14.482;2024-03-17T12:27:24;15.40;26.30
16532;DHT22;66872;63.142;14.482;2024-03-17T12:29:52;15.40;26.30
16532;DHT22;66872;63.142;14.482;2024-03-17T12:32:25;15.40;26.50
16532;DHT22;66872;63.142;14.482;2024-03-17T12:34:56;15.50;26.50
16532;DHT22;66872;63.142;14.482;2024-03-17T12:37:26;15.60;26.40
16532;DHT22;66872;63.142;14.482;2024-03-17T12:39:57;15.60;26.30
16532;DHT22;66872;63.142;14.482;2024-03-17T12:42:26;15.70;26.30
16532;DHT22;66872;63.142;14.482;2024-03-17T12:44:56;15.70;26.40
16532;DHT22;66872;63.142;14.482;2024-03-17T12:47:30;15.70;26.50
16532;DHT22;66872;63.142;14.482;2024-03-17T12:49:59;15.70;26.50
16532;DHT22;66872;63.142;14.482;2024-03-17T12:52:30;15.80;27.00
16532;DHT22;66872;63.142;14.482;2024-03-17T12:55:09;15.80;26.80
16532;DHT22;66872;63.142;14.482;2024-03-17T13:00:57;16.00;26.80
16532;DHT22;66872;63.142;14.482;2024-03-17T13:03:27;16.10;26.70
16532;DHT22;66872;63.142;14.482;2024-03-17T13:05:54;16.10;26.60
16532;DHT22;66872;63.142;14.482;2024-03-17T13:08:20;16.10;26.50
16532;DHT22;66872;63.142;14.482;2024-03-17T13:10:46;16.20;26.70
16532;DHT22;66872;63.142;14.482;2024-03-17T13:13:13;16.20;26.60
16532;DHT22;66872;63.142;14.482;2024-03-17T13:15:41;16.20;26.80
16532;DHT22;66872;63.142;14.482;2024-03-17T13:18:07;16.20;26.70
16532;DHT22;66872;63.142;14.482;2024-03-17T13:20:34;16.20;26.80
16532;DHT22;66872;63.142;14.482;2024-03-17T13:23:00;16.20;26.80
16532;DHT22;66872;63.142;14.482;2024-03-17T13:25:30;16.20;26.70
16532;DHT22;66872;63.142;14.482;2024-03-17T13:28:00;16.20;26.60
16532;DHT22;66872;63.142;14.482;2024-03-17T13:30:26;16.20;26.50
16532;DHT22;66872;63.142;14.482;2024-03-17T13:32:54;16.20;26.50
16532;DHT22;66872;63.142;14.482;2024-03-17T13:35:28;16.20;26.50
16532;DHT22;66872;63.142;14.482;2024-03-17T13:37:59;16.20;26.50
16532;DHT22;66872;63.142;14.482;2024-03-17T13:40:26;16.20;26.40
16532;DHT22;66872;63.142;14.482;2024-03-17T13:42:53;16.20;26.40
16532;DHT22;66872;63.142;14.482;2024-03-17T13:45:22;16.20;26.40
16532;DHT22;66872;63.142;14.482;2024-03-17T13:47:55;16.20;26.40
16532;DHT22;66872;63.142;14.482;2024-03-17T13:50:21;16.20;26.30
16532;DHT22;66872;63.142;14.482;2024-03-17T13:52:47;16.20;26.40
16532;DHT22;66872;63.142;14.482;2024-03-17T13:55:31;16.20;26.40
16532;DHT22;66872;63.142;14.482;2024-03-17T13:57:57;16.20;26.40
16532;DHT22;66872;63.142;14.482;2024-03-17T14:00:27;16.20;26.40
16532;DHT22;66872;63.142;14.482;2024-03-17T14:02:54;16.20;26.40
16532;DHT22;66872;63.142;14.482;2024-03-17T14:05:23;16.20;26.40
16532;DHT22;66872;63.142;14.482;2024-03-17T14:07:49;16.20;26.60
16532;DHT22;66872;63.142;14.482;2024-03-17T14:10:18;16.20;26.60
16532;DHT22;66872;63.142;14.482;2024-03-17T14:12:45;16.20;26.80
16532;DHT22;66872;63.142;14.482;2024-03-17T14:15:12;16.10;26.70
16532;DHT22;66872;63.142;14.482;2024-03-17T14:17:45;16.10;26.80
16532;DHT22;66872;63.142;14.482;2024-03-17T14:20:13;16.10;27.00
16532;DHT22;66872;63.142;14.482;2024-03-17T14:22:40;16.10;27.10
16532;DHT22;66872;63.142;14.482;2024-03-17T14:25:07;16.10;27.20
16532;DHT22;66872;63.142;14.482;2024-03-17T14:27:35;16.10;27.60
16532;DHT22;66872;63.142;14.482;2024-03-17T14:30:01;16.20;27.70
16532;DHT22;66872;63.142;14.482;2024-03-17T14:32:26;16.30;28.20
16532;DHT22;66872;63.142;14.482;2024-03-17T14:34:53;16.40;27.60
16532;DHT22;66872;63.142;14.482;2024-03-17T14:37:19;16.60;27.10
16532;DHT22;66872;63.142;14.482;2024-03-17T14:39:44;16.60;27.10
16532;DHT22;66872;63.142;14.482;2024-03-17T14:42:10;16.70;27.30
16532;DHT22;66872;63.142;14.482;2024-03-17T14:44:36;16.80;27.20
16532;DHT22;66872;63.142;14.482;2024-03-17T14:47:02;16.90;27.30
16532;DHT22;66872;63.142;14.482;2024-03-17T14:49:30;16.90;27.30
16532;DHT22;66872;63.142;14.482;2024-03-17T14:51:56;17.00;27.20
16532;DHT22;66872;63.142;14.482;2024-03-17T14:54:22;17.00;27.10
16532;DHT22;66872;63.142;14.482;2024-03-17T14:56:48;17.00;27.10
16532;DHT22;66872;63.142;14.482;2024-03-17T14:59:14;17.00;27.00
16532;DHT22;66872;63.142;14.482;2024-03-17T15:01:42;17.00;26.90
16532;DHT22;66872;63.142;14.482;2024-03-17T15:04:08;17.00;26.90
16532;DHT22;66872;63.142;14.482;2024-03-17T15:06:34;17.00;27.30
16532;DHT22;66872;63.142;14.482;2024-03-17T15:09:01;17.00;26.80
16532;DHT22;66872;63.142;14.482;2024-03-17T15:11:28;17.00;26.80
16532;DHT22;66872;63.142;14.482;2024-03-17T15:13:53;17.00;26.80
16532;DHT22;66872;63.142;14.482;2024-03-17T15:16:19;16.90;26.70
16532;DHT22;66872;63.142;14.482;2024-03-17T15:18:44;16.90;26.70
16532;DHT22;66872;63.142;14.482;2024-03-17T15:21:10;16.90;26.70
16532;DHT22;66872;63.142;14.482;2024-03-17T15:23:36;16.90;26.70
16532;DHT22;66872;63.142;14.482;2024-03-17T15:26:02;16.90;26.70
16532;DHT22;66872;63.142;14.482;2024-03-17T15:28:38;16.90;26.80
16532;DHT22;66872;63.142;14.482;2024-03-17T15:31:08;16.90;26.80
16532;DHT22;66872;63.142;14.482;2024-03-17T15:33:35;16.90;26.80
16532;DHT22;66872;63.142;14.482;2024-03-17T15:36:03;16.90;26.80
16532;DHT22;66872;63.142;14.482;2024-03-17T15:38:30;17.00;26.90
16532;DHT22;66872;63.142;14.482;2024-03-17T15:41:04;17.00;26.90
16532;DHT22;66872;63.142;14.482;2024-03-17T15:43:36;17.00;26.90